Terminal Aerodrome Forecast
Issued by NWS El Paso, TX

Home | Current Version | Previous Version | Text Only | Print | Product List | Glossary On
Versions: 1 2 3 4 5 6 7 8 9 10 11 12 13 14 15
000
FTUS44 KEPZ 261400 AAA
TAFELP
TAF AMD
KELP 261408Z 2614/2712 27008KT P6SM -SHRA SCT019 BKN035 OVC070
      TEMPO 2614/2618 5SM -RASN BKN019 OVC030
     FM261800 25010KT P6SM VCSH FEW012 SCT025 BKN040
     FM262200 28014G24KT P6SM SCT040 BKN100
     FM270300 04010KT P6SM SCT060 BKN130=

USA.gov is the U.S. government's official web portal to all federal, state and local government web resources and services.